createdAt,value
2023-03-26T00:00:38.320Z,146987.66
2023-03-26T00:01:40.869Z,146993.69
2023-03-26T00:02:43.356Z,146984.03
2023-03-26T00:03:47.258Z,146976.75
2023-03-26T00:04:50.073Z,146977.97
2023-03-26T00:06:04.170Z,147003.34
2023-03-26T00:07:06.628Z,146982.84
2023-03-26T00:08:09.990Z,146976.75
2023-03-26T00:09:15.872Z,146964.69
2023-03-26T00:10:18.391Z,146955.03
2023-03-26T00:11:22.589Z,146963.50
2023-03-26T00:12:25.861Z,146951.44
2023-03-26T00:13:28.349Z,146953.84
2023-03-26T00:14:30.993Z,146942.94
2023-03-26T00:15:35.558Z,146974.34
2023-03-26T00:16:38.109Z,146971.94
2023-03-26T00:17:40.613Z,146947.75
2023-03-26T00:18:43.719Z,146952.63
2023-03-26T00:19:46.358Z,146965.91
2023-03-26T00:20:48.877Z,146964.69
2023-03-26T00:21:51.777Z,146942.94
2023-03-26T00:22:55.353Z,146967.09
2023-03-26T00:24:06.325Z,146994.91
2023-03-26T00:25:09.760Z,146952.63
2023-03-26T00:26:13.006Z,146945.34
2023-03-26T00:27:15.521Z,146942.94
2023-03-26T00:28:22.521Z,146964.69
2023-03-26T00:29:25.009Z,146984.03
2023-03-26T00:30:27.899Z,146990.06
2023-03-26T00:31:31.021Z,146974.34
2023-03-26T00:32:33.793Z,146964.69
2023-03-26T00:33:40.933Z,146971.94
2023-03-26T00:34:46.276Z,146969.50
2023-03-26T00:35:54.337Z,147010.56
2023-03-26T00:37:02.716Z,146945.34
2023-03-26T00:38:05.451Z,146957.44
2023-03-26T00:39:08.216Z,146964.69
2023-03-26T00:40:11.101Z,146967.09
2023-03-26T00:41:23.220Z,146971.94
2023-03-26T00:42:26.697Z,146950.22
2023-03-26T00:43:32.930Z,146962.28
2023-03-26T00:44:35.458Z,146958.66
2023-03-26T00:45:37.975Z,146955.03
2023-03-26T00:46:40.608Z,146950.22
2023-03-26T00:47:44.230Z,146962.28
2023-03-26T00:48:47.349Z,146980.41
2023-03-26T00:49:50.941Z,146986.44
2023-03-26T00:50:53.583Z,146984.03
2023-03-26T00:51:56.232Z,146970.72
2023-03-26T00:52:58.988Z,146971.94
2023-03-26T00:54:01.625Z,146964.69
2023-03-26T00:55:04.265Z,146986.44
2023-03-26T00:56:07.387Z,146979.16
2023-03-26T00:57:10.613Z,146974.34
2023-03-26T00:58:14.363Z,146970.72
2023-03-26T00:59:17.118Z,146986.44
2023-03-26T01:00:28.987Z,146997.31
2023-03-26T01:01:32.589Z,146976.75
2023-03-26T01:02:35.536Z,146962.28
2023-03-26T01:03:38.709Z,146992.47
2023-03-26T01:04:46.373Z,147013.03
2023-03-26T01:05:55.384Z,146997.31
2023-03-26T01:07:02.888Z,147003.34
2023-03-26T01:08:15.320Z,147022.69
2023-03-26T01:09:21.085Z,147013.03
2023-03-26T01:10:23.718Z,146991.28
2023-03-26T01:11:30.196Z,147025.09
2023-03-26T01:12:32.833Z,147006.97
2023-03-26T01:13:38.481Z,147032.34
2023-03-26T01:14:41.743Z,146996.09
2023-03-26T01:15:51.398Z,147011.78
2023-03-26T01:16:58.883Z,147002.13
2023-03-26T01:18:05.063Z,146996.09
2023-03-26T01:19:20.718Z,147015.44
2023-03-26T01:20:26.929Z,146996.09
2023-03-26T01:21:30.540Z,146970.72
2023-03-26T01:22:36.682Z,147005.75
2023-03-26T01:23:44.364Z,147003.34
2023-03-26T01:24:53.260Z,146979.16
2023-03-26T01:26:14.006Z,147025.09
2023-03-26T01:27:19.283Z,147009.38
2023-03-26T01:28:23.844Z,146991.28
2023-03-26T01:29:55.696Z,147015.44
2023-03-26T01:31:25.285Z,147016.66
2023-03-26T01:32:58.248Z,147025.09
2023-03-26T01:34:06.806Z,147014.25
2023-03-26T01:35:14.857Z,147006.97
2023-03-26T01:36:32.497Z,147009.38
2023-03-26T01:37:53.732Z,147033.53
2023-03-26T01:39:18.831Z,147029.94
2023-03-26T01:40:38.798Z,147005.75
2023-03-26T01:41:51.345Z,147008.16
2023-03-26T01:42:57.332Z,146961.06
2023-03-26T01:44:14.978Z,147020.28
2023-03-26T01:45:23.863Z,147013.03
2023-03-26T01:46:27.418Z,147005.75
2023-03-26T01:47:31.328Z,146992.47
2023-03-26T01:48:45.239Z,147014.25
2023-03-26T01:49:48.722Z,146991.28
2023-03-26T01:50:53.680Z,146971.94
2023-03-26T01:51:58.185Z,146984.03
2023-03-26T01:53:01.182Z,146969.50
2023-03-26T01:54:08.141Z,147000.94
2023-03-26T01:55:14.512Z,146981.63
2023-03-26T01:56:50.277Z,147008.16
2023-03-26T01:58:16.908Z,147037.16
2023-03-26T01:59:37.191Z,146971.94
2023-03-26T02:00:48.225Z,147010.56
2023-03-26T02:02:09.960Z,146979.16
2023-03-26T02:03:32.253Z,147027.50
2023-03-26T02:05:02.276Z,147017.88
2023-03-26T02:06:17.634Z,147010.56
2023-03-26T02:07:51.310Z,147015.44
2023-03-26T02:08:59.508Z,147015.44
2023-03-26T02:10:10.554Z,147010.56
2023-03-26T02:11:16.613Z,146987.66
2023-03-26T02:12:21.716Z,147005.75
2023-03-26T02:13:25.673Z,147003.34
2023-03-26T02:14:30.845Z,146996.09
2023-03-26T02:15:33.728Z,146990.06
2023-03-26T02:16:36.297Z,146971.94
2023-03-26T02:17:40.412Z,146986.44
2023-03-26T02:18:47.399Z,147004.53
2023-03-26T02:19:51.489Z,146996.09
2023-03-26T02:20:54.115Z,146998.50
2023-03-26T02:21:59.949Z,146996.09
2023-03-26T02:23:04.437Z,147003.34
2023-03-26T02:24:07.200Z,147010.56
2023-03-26T02:25:15.492Z,147010.56
2023-03-26T02:26:20.044Z,146997.31
2023-03-26T02:27:30.959Z,146979.16
2023-03-26T02:28:33.839Z,146986.44
2023-03-26T02:29:39.970Z,146977.97
2023-03-26T02:30:46.005Z,146964.69
2023-03-26T02:31:49.821Z,146981.63
2023-03-26T02:32:54.225Z,146979.16
2023-03-26T02:33:58.574Z,146984.03
2023-03-26T02:35:05.526Z,146979.16
2023-03-26T02:36:09.098Z,146986.44
2023-03-26T02:37:11.646Z,146969.50
2023-03-26T02:38:16.809Z,146957.44
2023-03-26T02:39:19.449Z,146977.97
2023-03-26T02:40:29.897Z,146969.50
2023-03-26T02:41:33.489Z,146982.84
2023-03-26T02:42:39.849Z,146993.69
2023-03-26T02:43:42.489Z,146974.34
2023-03-26T02:44:49.096Z,146991.28
2023-03-26T02:45:54.718Z,146986.44
2023-03-26T02:47:15.979Z,146991.28
2023-03-26T02:48:18.870Z,146994.91
2023-03-26T02:49:26.291Z,146986.44
2023-03-26T02:50:32.654Z,146967.09
2023-03-26T02:51:56.464Z,146952.63
2023-03-26T02:53:03.138Z,146956.25
2023-03-26T02:54:10.824Z,146961.06
2023-03-26T02:55:13.219Z,146936.91
2023-03-26T02:56:17.182Z,146930.88
2023-03-26T02:57:33.501Z,146889.81
2023-03-26T02:58:38.778Z,146886.19
2023-03-26T02:59:41.430Z,146883.78
2023-03-26T03:01:03.882Z,146885.00
2023-03-26T03:02:13.592Z,146875.31
2023-03-26T03:03:17.500Z,146868.06
2023-03-26T03:04:22.959Z,146848.72
2023-03-26T03:05:31.595Z,146860.84
2023-03-26T03:06:57.655Z,146847.53
2023-03-26T03:08:00.991Z,146851.19
2023-03-26T03:09:06.874Z,146858.41
2023-03-26T03:10:10.129Z,146846.31
2023-03-26T03:11:31.105Z,146841.50
2023-03-26T03:12:33.508Z,146824.63
2023-03-26T03:13:36.027Z,146834.25
2023-03-26T03:14:38.430Z,146835.47
2023-03-26T03:15:40.966Z,146831.84
2023-03-26T03:16:43.601Z,146840.28
2023-03-26T03:17:47.329Z,146834.25
2023-03-26T03:18:54.798Z,146846.31
2023-03-26T03:19:58.958Z,146841.50
2023-03-26T03:21:03.076Z,146858.41
2023-03-26T03:22:05.685Z,146865.66
2023-03-26T03:23:09.156Z,146865.66
2023-03-26T03:24:13.922Z,146868.06
2023-03-26T03:25:22.265Z,146876.50
2023-03-26T03:26:30.112Z,146872.88
2023-03-26T03:27:39.331Z,146862.03
2023-03-26T03:28:46.968Z,146858.41
2023-03-26T03:29:53.687Z,146868.06
2023-03-26T03:31:15.563Z,146862.03
2023-03-26T03:32:18.164Z,146841.50
2023-03-26T03:33:23.934Z,146836.66
2023-03-26T03:34:26.465Z,146839.09
2023-03-26T03:35:30.181Z,146853.59
2023-03-26T03:36:38.631Z,146856.00
2023-03-26T03:38:00.542Z,146851.19
2023-03-26T03:39:05.931Z,146857.22
2023-03-26T03:40:13.744Z,146857.22
2023-03-26T03:41:18.682Z,146836.66
2023-03-26T03:42:22.492Z,146848.72
2023-03-26T03:43:27.773Z,146858.41
2023-03-26T03:44:52.732Z,146853.59
2023-03-26T03:46:15.205Z,146848.72
2023-03-26T03:47:24.822Z,146858.41
2023-03-26T03:48:29.942Z,146856.00
2023-03-26T03:49:32.820Z,146836.66
2023-03-26T03:50:35.920Z,146831.84
2023-03-26T03:51:58.743Z,146834.25
2023-03-26T03:53:07.150Z,146848.72
2023-03-26T03:54:10.515Z,146839.09
2023-03-26T03:55:18.780Z,146831.84
2023-03-26T03:56:26.339Z,146817.34
2023-03-26T03:57:47.105Z,146806.47
2023-03-26T03:58:54.547Z,146800.44
2023-03-26T04:00:09.229Z,146827.03
2023-03-26T04:01:30.843Z,146816.13
2023-03-26T04:02:38.703Z,146794.44
2023-03-26T04:03:41.904Z,146781.13
2023-03-26T04:04:50.400Z,146769.06
2023-03-26T04:05:56.103Z,146773.88
2023-03-26T04:07:01.506Z,146764.25
2023-03-26T04:08:23.503Z,146795.63
2023-03-26T04:09:28.752Z,146781.13
2023-03-26T04:10:35.710Z,146781.13
2023-03-26T04:11:46.872Z,146795.63
2023-03-26T04:13:01.775Z,146806.47
2023-03-26T04:14:22.393Z,146799.25
2023-03-26T04:15:45.453Z,146795.63
2023-03-26T04:16:49.155Z,146810.09
2023-03-26T04:17:52.200Z,146805.28
2023-03-26T04:18:54.917Z,146811.31
2023-03-26T04:19:57.452Z,146801.66
2023-03-26T04:21:07.583Z,146822.19
2023-03-26T04:22:12.160Z,146814.91
2023-03-26T04:23:26.705Z,146812.50
2023-03-26T04:24:46.277Z,146795.63
2023-03-26T04:26:07.285Z,146829.44
2023-03-26T04:27:41.811Z,146817.34
2023-03-26T04:29:03.569Z,146836.66
2023-03-26T04:30:10.179Z,146817.34
2023-03-26T04:31:16.563Z,146819.78
2023-03-26T04:32:29.961Z,146827.03
2023-03-26T04:33:34.783Z,146786.00
2023-03-26T04:34:37.769Z,146765.44
2023-03-26T04:35:48.628Z,146758.22
2023-03-26T04:36:54.838Z,146778.72
2023-03-26T04:38:06.621Z,146781.13
2023-03-26T04:39:13.532Z,146759.41
2023-03-26T04:40:35.260Z,146744.91
2023-03-26T04:41:37.777Z,146740.09
2023-03-26T04:42:46.378Z,146722.00
2023-03-26T04:44:01.998Z,146718.34
2023-03-26T04:45:22.929Z,146689.41
2023-03-26T04:46:35.115Z,146694.25
2023-03-26T04:47:48.893Z,146678.53
2023-03-26T04:48:52.416Z,146662.84
2023-03-26T04:49:54.826Z,146650.75
2023-03-26T04:50:57.704Z,146645.94
2023-03-26T04:52:00.577Z,146629.06
2023-03-26T04:53:26.149Z,146629.06
2023-03-26T04:54:51.942Z,146644.72
2023-03-26T04:56:07.189Z,146673.69
2023-03-26T04:57:37.434Z,146679.72
2023-03-26T04:58:44.148Z,146653.16
2023-03-26T04:59:47.380Z,146643.53
2023-03-26T05:00:50.399Z,146660.44
2023-03-26T05:01:53.864Z,146662.84
2023-03-26T05:02:59.579Z,146673.69
2023-03-26T05:04:02.454Z,146691.81
2023-03-26T05:05:05.393Z,146682.13
2023-03-26T05:06:11.993Z,146703.88
2023-03-26T05:07:18.966Z,146725.63
2023-03-26T05:08:26.986Z,146700.25
2023-03-26T05:09:29.515Z,146700.25
2023-03-26T05:10:47.029Z,146693.03
2023-03-26T05:11:57.477Z,146696.66
2023-03-26T05:13:00.473Z,146705.09
2023-03-26T05:14:07.911Z,146711.13
2023-03-26T05:15:12.114Z,146700.25
2023-03-26T05:16:36.372Z,146695.44
2023-03-26T05:17:43.457Z,146684.56
2023-03-26T05:18:54.254Z,146689.41
2023-03-26T05:19:57.952Z,146706.28
2023-03-26T05:21:00.958Z,146730.44
2023-03-26T05:22:04.562Z,146723.22
2023-03-26T05:23:11.047Z,146735.25
2023-03-26T05:24:18.964Z,146742.50
2023-03-26T05:25:21.715Z,146742.50
2023-03-26T05:26:24.479Z,146726.81
2023-03-26T05:27:27.238Z,146718.34
2023-03-26T05:28:29.760Z,146738.88
2023-03-26T05:29:36.644Z,146747.31
2023-03-26T05:30:39.479Z,146747.31
2023-03-26T05:31:42.129Z,146743.69
2023-03-26T05:32:44.820Z,146764.25
2023-03-26T05:33:48.782Z,146763.03
2023-03-26T05:34:51.251Z,146742.50
2023-03-26T05:36:02.232Z,146789.59
2023-03-26T05:37:07.093Z,146765.44
2023-03-26T05:38:29.056Z,146769.06
2023-03-26T05:39:32.082Z,146754.59
2023-03-26T05:40:59.047Z,146783.53
2023-03-26T05:42:02.047Z,146782.31
2023-03-26T05:43:19.236Z,146776.28
2023-03-26T05:44:35.413Z,146761.81
2023-03-26T05:45:43.141Z,146786.00
2023-03-26T05:46:52.947Z,146784.72
2023-03-26T05:47:59.197Z,146776.28
2023-03-26T05:49:02.066Z,146786.00
2023-03-26T05:50:09.997Z,146793.22
2023-03-26T05:51:16.096Z,146795.63
2023-03-26T05:52:26.309Z,146805.28
2023-03-26T05:53:51.871Z,146790.81
2023-03-26T05:55:33.503Z,146788.41
2023-03-26T05:56:54.432Z,146792.00
2023-03-26T05:58:15.628Z,146812.50
2023-03-26T05:59:36.860Z,146812.50
2023-03-26T06:01:08.700Z,146808.91
2023-03-26T06:02:35.023Z,146766.66
2023-03-26T06:03:57.829Z,146758.22
2023-03-26T06:05:04.607Z,146765.44
2023-03-26T06:06:33.328Z,146769.06
2023-03-26T06:07:36.406Z,146769.06
2023-03-26T06:09:01.451Z,146764.25
2023-03-26T06:10:05.204Z,146752.13
2023-03-26T06:11:08.344Z,146760.63
2023-03-26T06:12:14.796Z,146783.53
2023-03-26T06:13:17.946Z,146790.81
2023-03-26T06:14:21.765Z,146783.53
2023-03-26T06:15:44.708Z,146788.41
2023-03-26T06:17:16.836Z,146801.66
2023-03-26T06:18:38.818Z,146819.78
2023-03-26T06:20:09.260Z,146810.09
2023-03-26T06:21:15.519Z,146814.91
2023-03-26T06:22:31.722Z,146821.00
2023-03-26T06:23:53.111Z,146824.63
2023-03-26T06:25:13.616Z,146897.06
2023-03-26T06:26:28.258Z,146852.41
2023-03-26T06:27:45.522Z,146865.66
2023-03-26T06:29:14.924Z,146885.00
2023-03-26T06:30:36.162Z,146875.31
2023-03-26T06:32:06.203Z,146868.06
2023-03-26T06:33:24.533Z,146881.34
2023-03-26T06:34:27.663Z,146892.22
2023-03-26T06:35:31.138Z,146909.13
2023-03-26T06:36:34.126Z,146892.22
2023-03-26T06:37:36.648Z,146871.69
2023-03-26T06:38:39.172Z,146851.19
2023-03-26T06:39:43.009Z,146860.84
2023-03-26T06:41:07.509Z,146909.13
2023-03-26T06:43:06.943Z,146877.72
2023-03-26T06:44:16.490Z,146870.47
2023-03-26T06:45:37.388Z,146928.47
2023-03-26T06:47:02.817Z,146875.31
2023-03-26T06:48:34.383Z,146882.53
2023-03-26T06:49:59.585Z,146880.13
2023-03-26T06:51:08.821Z,146885.00
2023-03-26T06:52:30.056Z,146899.47
2023-03-26T06:53:43.381Z,146913.94
2023-03-26T06:55:06.672Z,146915.16
2023-03-26T06:56:32.261Z,146926.03
2023-03-26T06:57:58.264Z,146928.47
2023-03-26T06:59:23.465Z,146918.81
2023-03-26T07:00:44.371Z,146921.22
2023-03-26T07:02:13.027Z,146945.34
2023-03-26T07:03:34.241Z,146928.47
2023-03-26T07:04:55.524Z,146935.69
2023-03-26T07:06:16.879Z,146962.28
2023-03-26T07:07:25.513Z,146950.22
2023-03-26T07:08:55.542Z,146944.16
2023-03-26T07:10:07.753Z,146959.88
2023-03-26T07:11:29.357Z,146956.25
2023-03-26T07:12:54.675Z,146957.44
2023-03-26T07:13:57.208Z,146974.34
2023-03-26T07:15:32.116Z,146971.94
2023-03-26T07:16:52.948Z,147032.34
2023-03-26T07:18:12.320Z,146988.88
2023-03-26T07:19:16.402Z,146987.66
2023-03-26T07:20:18.924Z,146981.63
2023-03-26T07:21:21.930Z,146990.06
2023-03-26T07:22:25.521Z,147000.94
2023-03-26T07:23:37.039Z,146996.09
2023-03-26T07:24:54.569Z,147017.88
2023-03-26T07:26:35.967Z,147058.94
2023-03-26T07:27:50.370Z,146998.50
2023-03-26T07:29:20.967Z,147061.34
2023-03-26T07:30:50.849Z,147054.09
2023-03-26T07:32:20.248Z,147009.38
2023-03-26T07:34:11.731Z,147055.31
2023-03-26T07:35:29.037Z,147005.75
2023-03-26T07:37:03.810Z,147039.56
2023-03-26T07:38:55.769Z,147032.34
2023-03-26T07:40:16.058Z,147054.09
2023-03-26T07:42:21.458Z,147040.78
2023-03-26T07:44:06.575Z,147049.28
2023-03-26T07:45:41.908Z,147049.28
2023-03-26T07:46:54.120Z,147050.47
2023-03-26T07:48:25.663Z,147066.16
2023-03-26T07:49:57.908Z,147049.28
2023-03-26T07:51:12.944Z,147075.81
2023-03-26T07:52:35.987Z,147092.75
2023-03-26T07:53:50.509Z,147117.00
2023-03-26T07:55:16.539Z,147153.25
2023-03-26T07:56:42.887Z,147109.69
2023-03-26T07:58:30.580Z,147124.22
2023-03-26T08:00:12.397Z,147181.03
2023-03-26T08:01:39.821Z,147203.97
2023-03-26T08:02:49.612Z,147165.31
2023-03-26T08:04:23.904Z,147220.94
2023-03-26T08:05:57.850Z,147218.50
2023-03-26T08:07:26.176Z,147179.84
2023-03-26T08:09:29.750Z,147240.25
2023-03-26T08:11:30.226Z,147208.84
2023-03-26T08:12:48.829Z,147203.97
2023-03-26T08:14:09.122Z,147203.97
2023-03-26T08:15:25.886Z,147205.19
2023-03-26T08:16:40.913Z,147168.94
2023-03-26T08:18:18.247Z,147208.84
2023-03-26T08:19:21.004Z,147213.69
2023-03-26T08:20:32.152Z,147212.47
2023-03-26T08:21:48.116Z,147283.81
2023-03-26T08:23:02.398Z,147310.41
2023-03-26T08:24:23.040Z,147329.72
2023-03-26T08:25:37.417Z,147366.00
2023-03-26T08:26:44.161Z,147312.81
2023-03-26T08:27:48.026Z,147327.31
2023-03-26T08:29:26.791Z,147368.41
2023-03-26T08:30:31.103Z,147335.75
2023-03-26T08:31:36.764Z,147305.53
2023-03-26T08:32:39.513Z,147262.03
2023-03-26T08:33:42.018Z,147231.78
2023-03-26T08:34:46.338Z,147231.78
2023-03-26T08:35:49.417Z,147225.75
2023-03-26T08:36:52.597Z,147249.94
2023-03-26T08:37:55.922Z,147269.25
2023-03-26T08:38:59.893Z,147269.25
2023-03-26T08:40:02.655Z,147277.75
2023-03-26T08:41:48.134Z,147339.44
2023-03-26T08:42:59.770Z,147314.03
2023-03-26T08:44:11.062Z,147312.81
2023-03-26T08:45:51.737Z,147362.38
2023-03-26T08:47:03.144Z,147387.78
2023-03-26T08:48:36.269Z,147399.88
2023-03-26T08:50:00.262Z,147395.03
2023-03-26T08:51:18.260Z,147450.69
2023-03-26T08:52:42.014Z,147474.91
2023-03-26T08:53:56.776Z,147476.09
2023-03-26T08:55:07.939Z,147460.34
2023-03-26T08:56:31.517Z,147474.91
2023-03-26T08:57:46.702Z,147528.09
2023-03-26T08:59:31.004Z,147541.44
2023-03-26T09:01:03.740Z,147604.41
2023-03-26T09:02:27.431Z,147615.28
2023-03-26T09:04:11.191Z,147673.41
2023-03-26T09:05:51.027Z,147693.94
2023-03-26T09:07:14.577Z,147726.63
2023-03-26T09:08:53.763Z,147733.94
2023-03-26T09:10:24.752Z,147744.81
2023-03-26T09:11:45.991Z,147778.72
2023-03-26T09:13:09.866Z,147799.31
2023-03-26T09:14:48.993Z,147818.66
2023-03-26T09:15:51.416Z,147782.34
2023-03-26T09:17:24.449Z,147830.81
2023-03-26T09:19:18.283Z,147830.81
2023-03-26T09:20:26.676Z,147842.91
2023-03-26T09:21:41.080Z,147792.00
2023-03-26T09:23:01.724Z,147812.63
2023-03-26T09:24:17.443Z,147825.91
2023-03-26T09:25:52.596Z,147868.34
2023-03-26T09:27:30.290Z,147932.59
2023-03-26T09:29:04.373Z,147871.97
2023-03-26T09:30:33.406Z,147887.69
2023-03-26T09:31:58.188Z,147864.72
2023-03-26T09:33:22.607Z,147850.16
2023-03-26T09:34:36.530Z,147828.38
2023-03-26T09:35:57.426Z,147833.22
2023-03-26T09:37:25.733Z,147922.81
2023-03-26T09:38:52.017Z,147902.25
2023-03-26T09:39:59.460Z,147933.78
2023-03-26T09:41:15.899Z,147981.03
2023-03-26T09:42:32.474Z,148086.44
2023-03-26T09:44:08.335Z,148191.91
2023-03-26T09:45:29.235Z,148303.47
2023-03-26T09:46:40.497Z,148335.00
2023-03-26T09:48:05.649Z,148408.97
2023-03-26T09:49:21.673Z,148419.94
2023-03-26T09:50:44.823Z,148466.00
2023-03-26T09:52:03.306Z,148485.44
2023-03-26T09:53:32.340Z,148547.31
2023-03-26T09:55:08.474Z,148758.53
2023-03-26T09:56:37.339Z,148912.84
2023-03-26T09:58:03.233Z,148838.72
2023-03-26T09:59:27.061Z,148965.03
2023-03-26T10:01:05.958Z,148827.75
2023-03-26T10:02:46.207Z,148733.03
2023-03-26T10:04:33.282Z,148576.44
2023-03-26T10:05:56.837Z,148512.09
2023-03-26T10:07:19.029Z,148487.88
2023-03-26T10:08:37.028Z,148366.53
2023-03-26T10:10:07.876Z,148288.94
2023-03-26T10:11:34.993Z,148247.66
2023-03-26T10:12:43.156Z,148155.56
2023-03-26T10:14:08.112Z,148088.84
2023-03-26T10:15:48.075Z,148068.28
2023-03-26T10:17:05.325Z,148023.41
2023-03-26T10:18:27.688Z,148094.94
2023-03-26T10:19:53.975Z,148087.63
2023-03-26T10:20:59.480Z,148082.78
2023-03-26T10:22:20.476Z,148068.28
2023-03-26T10:23:38.030Z,148069.47
2023-03-26T10:25:14.361Z,148081.59
2023-03-26T10:26:22.881Z,148097.38
2023-03-26T10:27:43.308Z,148031.94
2023-03-26T10:29:04.762Z,148031.94
2023-03-26T10:30:10.281Z,147995.59
2023-03-26T10:32:09.802Z,148044.03
2023-03-26T10:33:49.521Z,148039.19
2023-03-26T10:34:57.686Z,148004.06
2023-03-26T10:36:05.781Z,148039.19
2023-03-26T10:37:19.766Z,148051.28
2023-03-26T10:38:38.125Z,148058.59
2023-03-26T10:39:43.626Z,148030.72
2023-03-26T10:41:00.568Z,148061.00
2023-03-26T10:42:30.806Z,148076.75
2023-03-26T10:44:08.710Z,148090.09
2023-03-26T10:45:40.174Z,148099.78
2023-03-26T10:47:11.256Z,148107.06
2023-03-26T10:48:19.529Z,148057.38
2023-03-26T10:49:33.934Z,148094.94
2023-03-26T10:51:13.654Z,148120.34
2023-03-26T10:52:23.508Z,148155.56
2023-03-26T10:53:41.377Z,148208.84
2023-03-26T10:55:08.496Z,148165.22
2023-03-26T10:56:39.363Z,148248.84
2023-03-26T10:58:17.980Z,148206.44
2023-03-26T10:59:20.496Z,148218.53
2023-03-26T11:00:29.293Z,148182.19
2023-03-26T11:01:50.421Z,148217.34
2023-03-26T11:03:17.745Z,148256.16
2023-03-26T11:04:38.636Z,148235.53
2023-03-26T11:05:55.255Z,148250.06
2023-03-26T11:07:13.555Z,148240.38
2023-03-26T11:08:35.538Z,148321.69
2023-03-26T11:09:48.722Z,148373.81
2023-03-26T11:10:57.351Z,148393.25
2023-03-26T11:12:27.034Z,148495.13
2023-03-26T11:13:31.928Z,148544.84
2023-03-26T11:14:46.082Z,148560.69
2023-03-26T11:15:57.607Z,148530.31
2023-03-26T11:17:39.566Z,148507.25
2023-03-26T11:19:08.398Z,148520.63
2023-03-26T11:20:16.679Z,148484.22
2023-03-26T11:21:28.087Z,148560.69
2023-03-26T11:22:48.720Z,148526.69
2023-03-26T11:24:29.762Z,148552.16
2023-03-26T11:26:02.657Z,148564.34
2023-03-26T11:27:25.885Z,148723.34
2023-03-26T11:28:37.945Z,148905.50
2023-03-26T11:29:57.846Z,148935.88
2023-03-26T11:31:00.569Z,148951.69
2023-03-26T11:32:11.796Z,148852.09
2023-03-26T11:33:26.887Z,148900.66
2023-03-26T11:34:42.021Z,148923.75
2023-03-26T11:35:49.478Z,148856.94
2023-03-26T11:36:56.565Z,148836.28
2023-03-26T11:38:05.896Z,148814.41
2023-03-26T11:39:14.179Z,148764.59
2023-03-26T11:40:24.509Z,148718.50
2023-03-26T11:41:33.620Z,148618.97
2023-03-26T11:43:06.389Z,148677.19
2023-03-26T11:44:26.778Z,148621.38
2023-03-26T11:45:34.105Z,148521.84
2023-03-26T11:46:40.161Z,148497.56
2023-03-26T11:47:56.479Z,148529.09
2023-03-26T11:49:00.021Z,148439.31
2023-03-26T11:50:04.102Z,148468.44
2023-03-26T11:51:15.021Z,148521.84
2023-03-26T11:52:17.666Z,148548.53
2023-03-26T11:53:24.744Z,148576.44
2023-03-26T11:54:28.103Z,148592.25
2023-03-26T11:55:32.908Z,148531.53
2023-03-26T11:57:05.355Z,148609.22
2023-03-26T11:58:22.942Z,148635.94
2023-03-26T11:59:28.223Z,148733.03
2023-03-26T12:00:31.343Z,148736.69
2023-03-26T12:02:04.775Z,148760.97
2023-03-26T12:03:15.750Z,148771.88
2023-03-26T12:04:25.234Z,148762.19
2023-03-26T12:05:36.657Z,148793.75
2023-03-26T12:06:39.505Z,148820.47
2023-03-26T12:07:49.618Z,148871.50
2023-03-26T12:08:52.107Z,148900.66
2023-03-26T12:09:57.750Z,148982.06
2023-03-26T12:11:27.395Z,149053.75
2023-03-26T12:12:41.448Z,149095.09
2023-03-26T12:13:53.187Z,149075.63
2023-03-26T12:14:55.713Z,149014.88
2023-03-26T12:16:08.287Z,149052.53
2023-03-26T12:17:31.388Z,149080.47
2023-03-26T12:18:34.710Z,148948.06
2023-03-26T12:19:45.531Z,148951.69
2023-03-26T12:20:48.277Z,148926.16
2023-03-26T12:21:53.575Z,148881.25
2023-03-26T12:23:00.882Z,148871.50
2023-03-26T12:24:06.283Z,148901.88
2023-03-26T12:25:21.519Z,148922.53
2023-03-26T12:26:34.121Z,148861.78
2023-03-26T12:27:42.079Z,148832.59
2023-03-26T12:28:46.605Z,148754.91
2023-03-26T12:29:55.154Z,148745.22
2023-03-26T12:31:05.322Z,148733.03
2023-03-26T12:32:14.376Z,148660.22
2023-03-26T12:33:26.145Z,148677.19
2023-03-26T12:34:35.137Z,148650.53
2023-03-26T12:35:38.099Z,148684.50
2023-03-26T12:36:49.241Z,148810.78
2023-03-26T12:37:51.890Z,149118.19
2023-03-26T12:39:15.973Z,149257.94
2023-03-26T12:40:25.725Z,149486.63
2023-03-26T12:43:51.614Z,149705.69
2023-03-26T12:44:46.779Z,149564.56
2023-03-26T12:44:59.941Z,149396.59
2023-03-26T12:47:54.436Z,149197.16
2023-03-26T12:48:01.001Z,149086.53
2023-03-26T12:49:08.809Z,149182.59
2023-03-26T12:50:15.772Z,149369.88
2023-03-26T12:51:44.455Z,149531.66
2023-03-26T12:52:55.969Z,149683.78
2023-03-26T12:54:29.818Z,149737.34
2023-03-26T12:56:08.344Z,149598.63
2023-03-26T12:57:20.900Z,149549.88
2023-03-26T12:58:30.909Z,149383.25
2023-03-26T12:59:51.909Z,149383.25
2023-03-26T13:01:15.997Z,149107.25
2023-03-26T13:02:34.513Z,149028.22
2023-03-26T13:03:41.956Z,149097.50
2023-03-26T13:05:05.608Z,149206.94
2023-03-26T13:06:18.307Z,149382.03
2023-03-26T13:07:48.428Z,149535.31
2023-03-26T13:08:57.787Z,149484.19
2023-03-26T13:10:25.270Z,149549.88
2023-03-26T13:11:45.191Z,149338.28
2023-03-26T13:12:57.071Z,149210.56
2023-03-26T13:14:41.233Z,149109.69
2023-03-26T13:15:52.520Z,149010.00
2023-03-26T13:17:09.392Z,148907.97
2023-03-26T13:18:32.242Z,148854.53
2023-03-26T13:20:00.162Z,148723.34
2023-03-26T13:21:23.361Z,148623.81
2023-03-26T13:22:30.195Z,148586.19
2023-03-26T13:23:50.840Z,148472.06
2023-03-26T13:25:13.649Z,148422.34
2023-03-26T13:26:46.531Z,148453.91
2023-03-26T13:28:13.640Z,148375.03
2023-03-26T13:29:31.044Z,148393.25
2023-03-26T13:30:52.022Z,148381.09
2023-03-26T13:32:00.332Z,148388.41
2023-03-26T13:33:41.254Z,148366.53
2023-03-26T13:35:08.800Z,148588.63
2023-03-26T13:36:38.189Z,148640.78
2023-03-26T13:38:02.489Z,148629.88
2023-03-26T13:39:18.933Z,148611.66
2023-03-26T13:40:27.090Z,148553.38
2023-03-26T13:41:53.976Z,148606.78
2023-03-26T13:43:13.652Z,148696.63
2023-03-26T13:44:36.332Z,148672.34
2023-03-26T13:45:49.831Z,148560.69
2023-03-26T13:46:58.418Z,148644.41
2023-03-26T13:48:04.680Z,148609.22
2023-03-26T13:49:16.659Z,148597.09
2023-03-26T13:50:23.028Z,148599.53
2023-03-26T13:51:36.344Z,148645.66
2023-03-26T13:52:46.086Z,148601.94
2023-03-26T13:53:55.061Z,148638.34
2023-03-26T13:55:22.424Z,148684.50
2023-03-26T13:56:50.899Z,148741.53
2023-03-26T13:58:05.091Z,148856.94
2023-03-26T13:59:29.146Z,148861.78
2023-03-26T14:00:54.787Z,149039.19
2023-03-26T14:02:06.403Z,149022.16
2023-03-26T14:03:18.386Z,148842.41
2023-03-26T14:04:33.349Z,148803.44
2023-03-26T14:05:42.709Z,148665.06
2023-03-26T14:07:08.845Z,148566.75
2023-03-26T14:08:19.829Z,148584.97
2023-03-26T14:09:44.632Z,148509.66
2023-03-26T14:10:55.776Z,148582.56